Aérodrome :
LOGIN :

S'inscrire | Disclaimer

   EN    FR    IT 

 










Légende :    VFR   VFR Marginal   IFR   IFR Intensif   IFR Très Intensif
Visi : 
Plafond : 
>= 8 km
>= 3000ft
5 à 8 km
1000 à 3000 ft
1500m à 5 km
500 à 1000 ft
800 à 1500m
200 à 500 ft
< 800m
< 200 ft
Symboles :   Orages  Brouillard  Fortes neiges  Fortes précipitations  Vent > 20 kt
SIGMETs :   Divers  Orages  Givrage  Turbulence  Onde Orograph.  Cendres Volcan.







- Altitude de l'aérodrome : 412 ft
- Code IATA : ORE
- Voir les cartes d'approche


LFOJ - Orleans

DERNIER METAR :
  • 281200Z AUTO 27006KT 240V300 9999 FEW034/// ///TCU 11/07 Q1017 TEMPO 4000 SHRA

METARs EXPIRÉS :
  • 281130Z AUTO 30012KT 9999 4800 BKN026 BKN031 BKN040 10/06 Q1017 TEMPO 4000 SHRA SCT020 BKN025TCU
  • 281100Z AUTO 28005KT 220V340 9999 SCT021 BKN038 BKN044 11/05 Q1017 TEMPO 4000 SHRA SCT020 BKN025TCU
  • 281030Z AUTO 28008KT 240V330 9999 BKN018 BKN025 OVC038 10/06 Q1017 TEMPO 4000 SHRA SCT020 BKN025TCU
  • 281000Z AUTO 28009KT 9999 BKN017 BKN024 BKN064 10/06 Q1017 TEMPO 4000 SHRA SCT020 BKN025TCU
  • 280930Z AUTO 28008KT 250V310 9999 BKN016 BKN078 OVC110 09/05 Q1017 TEMPO 4000 SHRA SCT020 BKN025TCU

TAF TAF LFOJ
Valide du 28 à 09h jusqu'au 29 à 09h UTC


280800Z 2809/2909 24010KT 9999 SCT025 BKN050
TEMPO 2810/2819 28010G20KT 4000 SHRA SCT020 BKN025TCU
BECMG 2819/2821 CAVOK
BECMG 2823/2901 3000 BR
TEMPO 2901/2906 0800 FG VV///
Pas de NOTAMs connus pour ce terrain.



MET'MAP, la Météo Aéronautique d'un coup d'oeil ! - Copyright ORBIFLY Décembre 2007 - Disclaimer

ORBIFLY MET'MAP TEAM :

Programmation & Développement : Alexandra Zaïnal
Conception & Développement : Baudouin d'Aumeries
Co-Programmation & Développement : Marc-Olivier Méhu
Soutien technique & logistique : Manuel Goepfert

Contact : metmap@orbifly.com




SOURCES & CREDITS :

   NOAA